sensor_id;sensor_type;location;lat;lon;timestamp;P1;durP1;ratioP1;P2;durP2;ratioP2
10201;SDS011;5143;42.584;23.164;2022-07-26T00:00:41;11.50;;;8.33;;
10201;SDS011;5143;42.584;23.164;2022-07-26T00:03:09;8.23;;;7.40;;
10201;SDS011;5143;42.584;23.164;2022-07-26T00:05:36;8.23;;;7.43;;
10201;SDS011;5143;42.584;23.164;2022-07-26T00:08:03;8.67;;;7.77;;
10201;SDS011;5143;42.584;23.164;2022-07-26T00:10:38;8.70;;;7.70;;
10201;SDS011;5143;42.584;23.164;2022-07-26T00:13:06;9.33;;;7.43;;
10201;SDS011;5143;42.584;23.164;2022-07-26T00:15:33;8.17;;;7.37;;
10201;SDS011;5143;42.584;23.164;2022-07-26T00:18:00;8.40;;;7.60;;
10201;SDS011;5143;42.584;23.164;2022-07-26T00:20:28;8.67;;;7.87;;
10201;SDS011;5143;42.584;23.164;2022-07-26T00:22:55;10.27;;;8.30;;
10201;SDS011;5143;42.584;23.164;2022-07-26T00:25:21;8.30;;;7.40;;
10201;SDS011;5143;42.584;23.164;2022-07-26T00:27:48;9.30;;;7.23;;
10201;SDS011;5143;42.584;23.164;2022-07-26T00:30:15;9.77;;;7.60;;
10201;SDS011;5143;42.584;23.164;2022-07-26T00:32:42;9.50;;;8.00;;
10201;SDS011;5143;42.584;23.164;2022-07-26T00:35:09;8.40;;;7.30;;
10201;SDS011;5143;42.584;23.164;2022-07-26T00:37:37;12.83;;;7.97;;
10201;SDS011;5143;42.584;23.164;2022-07-26T00:40:05;8.60;;;7.80;;
10201;SDS011;5143;42.584;23.164;2022-07-26T00:42:32;8.37;;;7.57;;
10201;SDS011;5143;42.584;23.164;2022-07-26T00:44:59;8.20;;;7.40;;
10201;SDS011;5143;42.584;23.164;2022-07-26T00:47:26;8.27;;;7.50;;
10201;SDS011;5143;42.584;23.164;2022-07-26T00:49:53;9.47;;;7.93;;
10201;SDS011;5143;42.584;23.164;2022-07-26T00:52:20;12.27;;;8.43;;
10201;SDS011;5143;42.584;23.164;2022-07-26T00:54:48;14.63;;;8.00;;
10201;SDS011;5143;42.584;23.164;2022-07-26T00:57:15;11.27;;;8.20;;
10201;SDS011;5143;42.584;23.164;2022-07-26T00:59:43;9.07;;;8.17;;
10201;SDS011;5143;42.584;23.164;2022-07-26T01:02:10;8.57;;;7.67;;
10201;SDS011;5143;42.584;23.164;2022-07-26T01:04:37;9.43;;;7.77;;
10201;SDS011;5143;42.584;23.164;2022-07-26T01:07:04;9.33;;;8.43;;
10201;SDS011;5143;42.584;23.164;2022-07-26T01:09:31;8.83;;;8.03;;
10201;SDS011;5143;42.584;23.164;2022-07-26T01:12:00;9.17;;;8.03;;
10201;SDS011;5143;42.584;23.164;2022-07-26T01:14:27;9.13;;;7.70;;
10201;SDS011;5143;42.584;23.164;2022-07-26T01:16:53;8.93;;;8.07;;
10201;SDS011;5143;42.584;23.164;2022-07-26T01:19:20;10.17;;;8.20;;
10201;SDS011;5143;42.584;23.164;2022-07-26T01:21:49;14.77;;;8.47;;
10201;SDS011;5143;42.584;23.164;2022-07-26T01:24:16;9.87;;;8.43;;
10201;SDS011;5143;42.584;23.164;2022-07-26T01:26:44;12.60;;;8.23;;
10201;SDS011;5143;42.584;23.164;2022-07-26T01:29:11;14.60;;;8.10;;
10201;SDS011;5143;42.584;23.164;2022-07-26T01:31:37;9.47;;;8.47;;
10201;SDS011;5143;42.584;23.164;2022-07-26T01:34:04;8.20;;;7.50;;
10201;SDS011;5143;42.584;23.164;2022-07-26T01:36:31;8.47;;;7.67;;
10201;SDS011;5143;42.584;23.164;2022-07-26T01:38:59;8.87;;;8.07;;
10201;SDS011;5143;42.584;23.164;2022-07-26T01:41:26;9.07;;;7.90;;
10201;SDS011;5143;42.584;23.164;2022-07-26T01:43:53;12.10;;;8.40;;
10201;SDS011;5143;42.584;23.164;2022-07-26T01:46:19;9.23;;;7.93;;
10201;SDS011;5143;42.584;23.164;2022-07-26T01:48:46;8.30;;;7.50;;
10201;SDS011;5143;42.584;23.164;2022-07-26T01:51:13;9.70;;;8.70;;
10201;SDS011;5143;42.584;23.164;2022-07-26T01:53:40;9.70;;;8.03;;
10201;SDS011;5143;42.584;23.164;2022-07-26T01:56:10;9.57;;;7.93;;
10201;SDS011;5143;42.584;23.164;2022-07-26T01:58:38;10.00;;;8.07;;
10201;SDS011;5143;42.584;23.164;2022-07-26T02:01:05;11.07;;;7.87;;
10201;SDS011;5143;42.584;23.164;2022-07-26T02:03:33;9.60;;;8.50;;
10201;SDS011;5143;42.584;23.164;2022-07-26T02:06:00;10.43;;;8.13;;
10201;SDS011;5143;42.584;23.164;2022-07-26T02:08:26;8.80;;;7.90;;
10201;SDS011;5143;42.584;23.164;2022-07-26T02:10:53;16.50;;;8.07;;
10201;SDS011;5143;42.584;23.164;2022-07-26T02:13:28;14.63;;;8.90;;
10201;SDS011;5143;42.584;23.164;2022-07-26T02:15:57;8.93;;;8.13;;
10201;SDS011;5143;42.584;23.164;2022-07-26T02:18:25;9.10;;;8.20;;
10201;SDS011;5143;42.584;23.164;2022-07-26T02:20:53;9.20;;;7.57;;
10201;SDS011;5143;42.584;23.164;2022-07-26T02:23:20;9.13;;;8.03;;
10201;SDS011;5143;42.584;23.164;2022-07-26T02:25:47;12.93;;;9.00;;
10201;SDS011;5143;42.584;23.164;2022-07-26T02:28:15;9.50;;;8.17;;
10201;SDS011;5143;42.584;23.164;2022-07-26T02:30:44;13.90;;;8.67;;
10201;SDS011;5143;42.584;23.164;2022-07-26T02:33:11;10.47;;;8.40;;
10201;SDS011;5143;42.584;23.164;2022-07-26T02:35:38;9.00;;;8.07;;
10201;SDS011;5143;42.584;23.164;2022-07-26T02:38:06;10.00;;;8.67;;
10201;SDS011;5143;42.584;23.164;2022-07-26T02:40:34;9.33;;;8.43;;
10201;SDS011;5143;42.584;23.164;2022-07-26T02:43:02;14.57;;;8.80;;
10201;SDS011;5143;42.584;23.164;2022-07-26T02:45:29;9.30;;;8.50;;
10201;SDS011;5143;42.584;23.164;2022-07-26T02:47:57;9.10;;;8.20;;
10201;SDS011;5143;42.584;23.164;2022-07-26T02:50:25;11.90;;;9.77;;
10201;SDS011;5143;42.584;23.164;2022-07-26T02:52:53;10.90;;;8.27;;
10201;SDS011;5143;42.584;23.164;2022-07-26T02:55:21;9.63;;;8.63;;
10201;SDS011;5143;42.584;23.164;2022-07-26T02:57:49;12.53;;;8.97;;
10201;SDS011;5143;42.584;23.164;2022-07-26T03:00:17;10.17;;;8.90;;
10201;SDS011;5143;42.584;23.164;2022-07-26T03:02:45;14.63;;;8.43;;
10201;SDS011;5143;42.584;23.164;2022-07-26T03:05:14;13.00;;;9.07;;
10201;SDS011;5143;42.584;23.164;2022-07-26T03:07:42;11.57;;;9.07;;
10201;SDS011;5143;42.584;23.164;2022-07-26T03:10:09;13.13;;;8.50;;
10201;SDS011;5143;42.584;23.164;2022-07-26T03:12:36;12.37;;;8.63;;
10201;SDS011;5143;42.584;23.164;2022-07-26T03:15:03;9.10;;;8.13;;
10201;SDS011;5143;42.584;23.164;2022-07-26T03:17:30;10.03;;;9.00;;
10201;SDS011;5143;42.584;23.164;2022-07-26T03:19:57;10.33;;;9.33;;
10201;SDS011;5143;42.584;23.164;2022-07-26T03:22:27;14.60;;;9.60;;
10201;SDS011;5143;42.584;23.164;2022-07-26T03:24:54;11.93;;;9.60;;
10201;SDS011;5143;42.584;23.164;2022-07-26T03:27:21;12.13;;;9.33;;
10201;SDS011;5143;42.584;23.164;2022-07-26T03:29:48;13.77;;;9.77;;
10201;SDS011;5143;42.584;23.164;2022-07-26T03:32:15;10.60;;;9.53;;
10201;SDS011;5143;42.584;23.164;2022-07-26T03:34:42;15.40;;;9.40;;
10201;SDS011;5143;42.584;23.164;2022-07-26T03:37:08;20.20;;;9.97;;
10201;SDS011;5143;42.584;23.164;2022-07-26T03:39:36;12.23;;;9.10;;
10201;SDS011;5143;42.584;23.164;2022-07-26T03:42:04;11.00;;;9.20;;
10201;SDS011;5143;42.584;23.164;2022-07-26T03:44:31;10.13;;;9.13;;
10201;SDS011;5143;42.584;23.164;2022-07-26T03:46:58;10.00;;;8.53;;
10201;SDS011;5143;42.584;23.164;2022-07-26T03:49:25;12.63;;;9.13;;
10201;SDS011;5143;42.584;23.164;2022-07-26T03:51:52;12.07;;;9.10;;
10201;SDS011;5143;42.584;23.164;2022-07-26T03:54:19;13.90;;;9.60;;
10201;SDS011;5143;42.584;23.164;2022-07-26T03:56:47;12.80;;;9.80;;
10201;SDS011;5143;42.584;23.164;2022-07-26T03:59:13;10.87;;;9.37;;
10201;SDS011;5143;42.584;23.164;2022-07-26T04:01:40;20.47;;;9.97;;
10201;SDS011;5143;42.584;23.164;2022-07-26T04:04:07;10.33;;;9.17;;
10201;SDS011;5143;42.584;23.164;2022-07-26T04:06:35;10.67;;;9.10;;
10201;SDS011;5143;42.584;23.164;2022-07-26T04:09:02;10.63;;;9.43;;
10201;SDS011;5143;42.584;23.164;2022-07-26T04:11:30;10.90;;;9.30;;
10201;SDS011;5143;42.584;23.164;2022-07-26T04:13:58;18.33;;;9.30;;
10201;SDS011;5143;42.584;23.164;2022-07-26T04:16:26;12.63;;;9.17;;
10201;SDS011;5143;42.584;23.164;2022-07-26T04:18:53;14.33;;;8.57;;
10201;SDS011;5143;42.584;23.164;2022-07-26T04:21:20;11.00;;;9.33;;
10201;SDS011;5143;42.584;23.164;2022-07-26T04:23:47;16.27;;;9.23;;
10201;SDS011;5143;42.584;23.164;2022-07-26T04:26:14;21.73;;;9.30;;
10201;SDS011;5143;42.584;23.164;2022-07-26T04:28:41;16.70;;;9.27;;
10201;SDS011;5143;42.584;23.164;2022-07-26T04:31:10;16.60;;;9.90;;
10201;SDS011;5143;42.584;23.164;2022-07-26T04:33:36;11.20;;;9.70;;
10201;SDS011;5143;42.584;23.164;2022-07-26T04:36:03;19.10;;;9.83;;
10201;SDS011;5143;42.584;23.164;2022-07-26T04:38:31;13.87;;;9.17;;
10201;SDS011;5143;42.584;23.164;2022-07-26T04:40:57;11.20;;;8.70;;
10201;SDS011;5143;42.584;23.164;2022-07-26T04:43:24;11.67;;;7.50;;
10201;SDS011;5143;42.584;23.164;2022-07-26T04:45:51;10.40;;;7.00;;
10201;SDS011;5143;42.584;23.164;2022-07-26T04:48:19;15.60;;;6.80;;
10201;SDS011;5143;42.584;23.164;2022-07-26T04:50:46;10.13;;;6.60;;
10201;SDS011;5143;42.584;23.164;2022-07-26T04:53:13;11.32;;;6.90;;
10201;SDS011;5143;42.584;23.164;2022-07-26T04:55:40;15.30;;;7.15;;
10201;SDS011;5143;42.584;23.164;2022-07-26T04:58:07;12.50;;;6.43;;
10201;SDS011;5143;42.584;23.164;2022-07-26T05:00:34;17.02;;;6.75;;
10201;SDS011;5143;42.584;23.164;2022-07-26T05:03:02;8.20;;;6.53;;
10201;SDS011;5143;42.584;23.164;2022-07-26T05:05:31;7.75;;;6.38;;
10201;SDS011;5143;42.584;23.164;2022-07-26T05:07:58;12.02;;;6.68;;
10201;SDS011;5143;42.584;23.164;2022-07-26T05:10:27;24.10;;;7.43;;
10201;SDS011;5143;42.584;23.164;2022-07-26T05:12:56;8.52;;;6.40;;
10201;SDS011;5143;42.584;23.164;2022-07-26T05:15:22;9.40;;;6.07;;
10201;SDS011;5143;42.584;23.164;2022-07-26T05:17:49;8.13;;;6.00;;
10201;SDS011;5143;42.584;23.164;2022-07-26T05:20:16;10.02;;;5.85;;
10201;SDS011;5143;42.584;23.164;2022-07-26T05:22:44;13.10;;;5.65;;
10201;SDS011;5143;42.584;23.164;2022-07-26T05:25:11;10.52;;;6.45;;
10201;SDS011;5143;42.584;23.164;2022-07-26T05:27:38;12.40;;;5.72;;
10201;SDS011;5143;42.584;23.164;2022-07-26T05:30:06;6.40;;;5.30;;
10201;SDS011;5143;42.584;23.164;2022-07-26T05:32:34;7.95;;;5.70;;
10201;SDS011;5143;42.584;23.164;2022-07-26T05:35:01;5.72;;;5.22;;
10201;SDS011;5143;42.584;23.164;2022-07-26T05:37:28;8.48;;;5.38;;
10201;SDS011;5143;42.584;23.164;2022-07-26T05:39:56;7.30;;;5.30;;
10201;SDS011;5143;42.584;23.164;2022-07-26T05:42:23;10.93;;;6.22;;
10201;SDS011;5143;42.584;23.164;2022-07-26T05:44:50;6.60;;;5.40;;
10201;SDS011;5143;42.584;23.164;2022-07-26T05:47:32;6.35;;;5.00;;
10201;SDS011;5143;42.584;23.164;2022-07-26T05:49:59;7.47;;;4.88;;
10201;SDS011;5143;42.584;23.164;2022-07-26T05:52:26;8.05;;;5.28;;
10201;SDS011;5143;42.584;23.164;2022-07-26T05:54:53;7.90;;;5.20;;
10201;SDS011;5143;42.584;23.164;2022-07-26T05:57:21;6.40;;;5.13;;
10201;SDS011;5143;42.584;23.164;2022-07-26T05:59:48;5.78;;;5.28;;
10201;SDS011;5143;42.584;23.164;2022-07-26T06:02:15;6.15;;;5.00;;
10201;SDS011;5143;42.584;23.164;2022-07-26T06:04:42;5.88;;;5.03;;
10201;SDS011;5143;42.584;23.164;2022-07-26T06:07:09;5.60;;;5.03;;
10201;SDS011;5143;42.584;23.164;2022-07-26T06:09:36;5.95;;;5.10;;
10201;SDS011;5143;42.584;23.164;2022-07-26T06:12:03;7.70;;;5.20;;
10201;SDS011;5143;42.584;23.164;2022-07-26T06:14:32;7.25;;;5.20;;
10201;SDS011;5143;42.584;23.164;2022-07-26T06:16:59;6.93;;;5.22;;
10201;SDS011;5143;42.584;23.164;2022-07-26T06:19:26;7.45;;;4.82;;
10201;SDS011;5143;42.584;23.164;2022-07-26T06:21:53;5.30;;;4.80;;
10201;SDS011;5143;42.584;23.164;2022-07-26T06:24:20;5.18;;;4.60;;
10201;SDS011;5143;42.584;23.164;2022-07-26T06:26:48;7.75;;;4.47;;
10201;SDS011;5143;42.584;23.164;2022-07-26T06:29:17;6.38;;;4.57;;
10201;SDS011;5143;42.584;23.164;2022-07-26T06:31:45;4.63;;;4.22;;
10201;SDS011;5143;42.584;23.164;2022-07-26T06:34:12;6.75;;;4.78;;
10201;SDS011;5143;42.584;23.164;2022-07-26T06:36:39;4.88;;;4.43;;
10201;SDS011;5143;42.584;23.164;2022-07-26T06:39:06;6.43;;;5.00;;
10201;SDS011;5143;42.584;23.164;2022-07-26T06:41:33;6.43;;;4.22;;
10201;SDS011;5143;42.584;23.164;2022-07-26T06:44:00;7.70;;;5.32;;
10201;SDS011;5143;42.584;23.164;2022-07-26T06:46:26;5.90;;;4.40;;
10201;SDS011;5143;42.584;23.164;2022-07-26T06:48:55;4.97;;;4.45;;
10201;SDS011;5143;42.584;23.164;2022-07-26T06:51:21;5.97;;;4.93;;
10201;SDS011;5143;42.584;23.164;2022-07-26T06:53:48;9.07;;;4.88;;
10201;SDS011;5143;42.584;23.164;2022-07-26T06:56:15;4.78;;;4.32;;
10201;SDS011;5143;42.584;23.164;2022-07-26T06:58:43;6.13;;;4.78;;
10201;SDS011;5143;42.584;23.164;2022-07-26T07:01:10;5.90;;;4.15;;
10201;SDS011;5143;42.584;23.164;2022-07-26T07:03:37;6.95;;;4.85;;
10201;SDS011;5143;42.584;23.164;2022-07-26T07:06:05;7.72;;;4.00;;
10201;SDS011;5143;42.584;23.164;2022-07-26T07:08:32;8.70;;;4.50;;
10201;SDS011;5143;42.584;23.164;2022-07-26T07:10:59;7.03;;;4.53;;
10201;SDS011;5143;42.584;23.164;2022-07-26T07:13:26;6.07;;;4.35;;
10201;SDS011;5143;42.584;23.164;2022-07-26T07:15:53;6.30;;;4.40;;
10201;SDS011;5143;42.584;23.164;2022-07-26T07:18:20;6.47;;;4.68;;
10201;SDS011;5143;42.584;23.164;2022-07-26T07:20:46;5.30;;;4.40;;
10201;SDS011;5143;42.584;23.164;2022-07-26T07:23:15;6.40;;;4.55;;
10201;SDS011;5143;42.584;23.164;2022-07-26T07:25:41;8.88;;;4.70;;
10201;SDS011;5143;42.584;23.164;2022-07-26T07:28:08;6.72;;;4.60;;
10201;SDS011;5143;42.584;23.164;2022-07-26T07:30:35;6.82;;;5.10;;
10201;SDS011;5143;42.584;23.164;2022-07-26T07:33:02;7.63;;;5.43;;
10201;SDS011;5143;42.584;23.164;2022-07-26T07:35:29;5.40;;;4.90;;
10201;SDS011;5143;42.584;23.164;2022-07-26T07:37:55;5.38;;;4.88;;
10201;SDS011;5143;42.584;23.164;2022-07-26T07:40:24;12.77;;;5.57;;
10201;SDS011;5143;42.584;23.164;2022-07-26T07:42:51;9.30;;;5.50;;
10201;SDS011;5143;42.584;23.164;2022-07-26T07:45:18;5.47;;;4.90;;
10201;SDS011;5143;42.584;23.164;2022-07-26T07:47:44;5.70;;;5.20;;
10201;SDS011;5143;42.584;23.164;2022-07-26T07:50:11;7.22;;;5.47;;
10201;SDS011;5143;42.584;23.164;2022-07-26T07:52:38;9.10;;;5.82;;
10201;SDS011;5143;42.584;23.164;2022-07-26T07:55:05;6.60;;;5.40;;
10201;SDS011;5143;42.584;23.164;2022-07-26T07:57:35;6.03;;;5.43;;
10201;SDS011;5143;42.584;23.164;2022-07-26T08:00:02;5.80;;;5.30;;
10201;SDS011;5143;42.584;23.164;2022-07-26T08:02:30;6.05;;;5.43;;
10201;SDS011;5143;42.584;23.164;2022-07-26T08:04:56;5.28;;;4.78;;
10201;SDS011;5143;42.584;23.164;2022-07-26T08:07:23;8.18;;;5.65;;
10201;SDS011;5143;42.584;23.164;2022-07-26T08:09:50;6.90;;;5.75;;
10201;SDS011;5143;42.584;23.164;2022-07-26T08:12:17;8.52;;;5.35;;
10201;SDS011;5143;42.584;23.164;2022-07-26T08:14:45;7.13;;;5.40;;
10201;SDS011;5143;42.584;23.164;2022-07-26T08:17:12;6.68;;;5.38;;
10201;SDS011;5143;42.584;23.164;2022-07-26T08:19:39;5.85;;;5.22;;
10201;SDS011;5143;42.584;23.164;2022-07-26T08:22:05;6.35;;;5.25;;
10201;SDS011;5143;42.584;23.164;2022-07-26T08:24:32;8.05;;;5.70;;
10201;SDS011;5143;42.584;23.164;2022-07-26T08:26:59;6.53;;;5.25;;
10201;SDS011;5143;42.584;23.164;2022-07-26T08:29:26;6.18;;;5.53;;
10201;SDS011;5143;42.584;23.164;2022-07-26T08:31:54;7.70;;;5.30;;
10201;SDS011;5143;42.584;23.164;2022-07-26T08:34:21;6.45;;;5.82;;
10201;SDS011;5143;42.584;23.164;2022-07-26T08:36:48;6.10;;;5.50;;
10201;SDS011;5143;42.584;23.164;2022-07-26T08:39:15;6.57;;;5.60;;
10201;SDS011;5143;42.584;23.164;2022-07-26T08:41:42;8.00;;;5.63;;
10201;SDS011;5143;42.584;23.164;2022-07-26T08:44:10;6.97;;;6.10;;
10201;SDS011;5143;42.584;23.164;2022-07-26T08:46:38;5.50;;;5.00;;
10201;SDS011;5143;42.584;23.164;2022-07-26T08:49:09;15.65;;;7.28;;
10201;SDS011;5143;42.584;23.164;2022-07-26T08:51:39;9.43;;;5.82;;
10201;SDS011;5143;42.584;23.164;2022-07-26T08:54:07;8.50;;;5.40;;
10201;SDS011;5143;42.584;23.164;2022-07-26T08:56:35;6.95;;;5.72;;
10201;SDS011;5143;42.584;23.164;2022-07-26T08:59:10;9.23;;;5.20;;
10201;SDS011;5143;42.584;23.164;2022-07-26T09:01:48;5.97;;;5.03;;
10201;SDS011;5143;42.584;23.164;2022-07-26T09:04:21;6.15;;;4.78;;
10201;SDS011;5143;42.584;23.164;2022-07-26T09:06:59;6.53;;;5.15;;
10201;SDS011;5143;42.584;23.164;2022-07-26T09:09:28;10.15;;;6.28;;
10201;SDS011;5143;42.584;23.164;2022-07-26T09:11:55;6.68;;;6.00;;
10201;SDS011;5143;42.584;23.164;2022-07-26T09:14:27;9.00;;;5.60;;
10201;SDS011;5143;42.584;23.164;2022-07-26T09:17:02;6.75;;;6.03;;
10201;SDS011;5143;42.584;23.164;2022-07-26T09:19:31;6.10;;;5.50;;
10201;SDS011;5143;42.584;23.164;2022-07-26T09:22:04;8.85;;;5.32;;
10201;SDS011;5143;42.584;23.164;2022-07-26T09:24:33;7.00;;;5.68;;
10201;SDS011;5143;42.584;23.164;2022-07-26T09:27:02;8.57;;;5.65;;
10201;SDS011;5143;42.584;23.164;2022-07-26T09:29:40;7.57;;;5.40;;
10201;SDS011;5143;42.584;23.164;2022-07-26T09:32:09;7.85;;;6.25;;
10201;SDS011;5143;42.584;23.164;2022-07-26T09:34:42;7.47;;;5.65;;
10201;SDS011;5143;42.584;23.164;2022-07-26T09:37:09;6.57;;;5.30;;
10201;SDS011;5143;42.584;23.164;2022-07-26T09:42:19;6.68;;;5.80;;
10201;SDS011;5143;42.584;23.164;2022-07-26T09:44:47;6.68;;;5.32;;
10201;SDS011;5143;42.584;23.164;2022-07-26T09:47:13;8.57;;;6.03;;
10201;SDS011;5143;42.584;23.164;2022-07-26T09:49:41;12.73;;;6.20;;
10201;SDS011;5143;42.584;23.164;2022-07-26T09:52:12;10.13;;;6.05;;
10201;SDS011;5143;42.584;23.164;2022-07-26T09:54:40;8.88;;;5.97;;
10201;SDS011;5143;42.584;23.164;2022-07-26T09:57:10;10.65;;;5.75;;
10201;SDS011;5143;42.584;23.164;2022-07-26T09:59:39;7.00;;;5.18;;
10201;SDS011;5143;42.584;23.164;2022-07-26T10:02:07;11.35;;;5.55;;
10201;SDS011;5143;42.584;23.164;2022-07-26T10:04:34;8.80;;;5.40;;
10201;SDS011;5143;42.584;23.164;2022-07-26T10:07:03;10.20;;;6.50;;
10201;SDS011;5143;42.584;23.164;2022-07-26T10:09:31;7.70;;;5.45;;
10201;SDS011;5143;42.584;23.164;2022-07-26T10:12:05;6.50;;;5.55;;
10201;SDS011;5143;42.584;23.164;2022-07-26T10:14:37;7.82;;;5.18;;
10201;SDS011;5143;42.584;23.164;2022-07-26T10:20:10;6.18;;;5.20;;
10201;SDS011;5143;42.584;23.164;2022-07-26T10:22:53;6.18;;;5.57;;
10201;SDS011;5143;42.584;23.164;2022-07-26T10:28:26;7.90;;;5.85;;
10201;SDS011;5143;42.584;23.164;2022-07-26T10:33:50;11.52;;;5.40;;
10201;SDS011;5143;42.584;23.164;2022-07-26T10:36:22;5.82;;;5.20;;
10201;SDS011;5143;42.584;23.164;2022-07-26T10:39:07;9.38;;;5.47;;
10201;SDS011;5143;42.584;23.164;2022-07-26T10:41:37;8.50;;;5.20;;
10201;SDS011;5143;42.584;23.164;2022-07-26T10:44:10;7.00;;;5.43;;
10201;SDS011;5143;42.584;23.164;2022-07-26T10:46:53;5.78;;;5.13;;
10201;SDS011;5143;42.584;23.164;2022-07-26T10:49:26;9.30;;;5.32;;
10201;SDS011;5143;42.584;23.164;2022-07-26T10:52:03;6.22;;;4.90;;
10201;SDS011;5143;42.584;23.164;2022-07-26T10:54:33;6.53;;;5.20;;
10201;SDS011;5143;42.584;23.164;2022-07-26T10:57:36;9.15;;;4.80;;
10201;SDS011;5143;42.584;23.164;2022-07-26T11:00:08;6.93;;;5.10;;
10201;SDS011;5143;42.584;23.164;2022-07-26T11:02:38;8.35;;;5.20;;
10201;SDS011;5143;42.584;23.164;2022-07-26T11:05:08;8.02;;;4.93;;
10201;SDS011;5143;42.584;23.164;2022-07-26T11:07:52;8.80;;;5.15;;
10201;SDS011;5143;42.584;23.164;2022-07-26T11:10:23;10.57;;;5.65;;
10201;SDS011;5143;42.584;23.164;2022-07-26T11:13:01;9.82;;;4.93;;
10201;SDS011;5143;42.584;23.164;2022-07-26T11:15:32;5.65;;;5.10;;
10201;SDS011;5143;42.584;23.164;2022-07-26T11:20:44;6.07;;;5.00;;
10201;SDS011;5143;42.584;23.164;2022-07-26T11:23:24;5.25;;;4.45;;
10201;SDS011;5143;42.584;23.164;2022-07-26T11:26:12;10.60;;;5.07;;
10201;SDS011;5143;42.584;23.164;2022-07-26T11:28:48;5.90;;;4.78;;
10201;SDS011;5143;42.584;23.164;2022-07-26T11:31:17;6.05;;;4.90;;
10201;SDS011;5143;42.584;23.164;2022-07-26T11:33:46;7.00;;;5.10;;
10201;SDS011;5143;42.584;23.164;2022-07-26T11:36:15;6.65;;;5.22;;
10201;SDS011;5143;42.584;23.164;2022-07-26T11:38:46;6.22;;;4.82;;
10201;SDS011;5143;42.584;23.164;2022-07-26T11:41:18;7.90;;;5.03;;
10201;SDS011;5143;42.584;23.164;2022-07-26T11:43:45;5.78;;;4.53;;
10201;SDS011;5143;42.584;23.164;2022-07-26T11:46:13;11.40;;;4.97;;
10201;SDS011;5143;42.584;23.164;2022-07-26T11:48:43;5.28;;;4.80;;
10201;SDS011;5143;42.584;23.164;2022-07-26T11:51:12;6.72;;;4.72;;
10201;SDS011;5143;42.584;23.164;2022-07-26T11:53:40;5.53;;;4.35;;
10201;SDS011;5143;42.584;23.164;2022-07-26T11:56:13;10.77;;;5.03;;
10201;SDS011;5143;42.584;23.164;2022-07-26T11:58:44;12.27;;;5.03;;
10201;SDS011;5143;42.584;23.164;2022-07-26T12:01:13;6.00;;;5.10;;
10201;SDS011;5143;42.584;23.164;2022-07-26T12:03:42;6.13;;;4.68;;
10201;SDS011;5143;42.584;23.164;2022-07-26T12:06:11;7.28;;;4.28;;
10201;SDS011;5143;42.584;23.164;2022-07-26T12:08:41;4.82;;;4.38;;
10201;SDS011;5143;42.584;23.164;2022-07-26T12:11:10;4.97;;;4.10;;
10201;SDS011;5143;42.584;23.164;2022-07-26T12:13:49;8.50;;;4.10;;
10201;SDS011;5143;42.584;23.164;2022-07-26T12:19:08;4.80;;;4.10;;
10201;SDS011;5143;42.584;23.164;2022-07-26T12:21:49;4.28;;;3.88;;
10201;SDS011;5143;42.584;23.164;2022-07-26T12:24:33;5.50;;;4.32;;
10201;SDS011;5143;42.584;23.164;2022-07-26T12:27:05;7.13;;;4.28;;
10201;SDS011;5143;42.584;23.164;2022-07-26T12:29:34;5.30;;;4.10;;
10201;SDS011;5143;42.584;23.164;2022-07-26T12:32:05;4.68;;;3.85;;
10201;SDS011;5143;42.584;23.164;2022-07-26T12:34:34;12.70;;;4.00;;
10201;SDS011;5143;42.584;23.164;2022-07-26T12:40:05;6.30;;;4.38;;
10201;SDS011;5143;42.584;23.164;2022-07-26T12:42:35;6.88;;;4.40;;
10201;SDS011;5143;42.584;23.164;2022-07-26T12:45:05;5.43;;;4.20;;
10201;SDS011;5143;42.584;23.164;2022-07-26T12:47:34;6.25;;;4.20;;
10201;SDS011;5143;42.584;23.164;2022-07-26T12:50:02;5.15;;;3.58;;
10201;SDS011;5143;42.584;23.164;2022-07-26T12:52:29;8.48;;;4.10;;
10201;SDS011;5143;42.584;23.164;2022-07-26T12:54:57;6.63;;;4.45;;
10201;SDS011;5143;42.584;23.164;2022-07-26T12:57:25;4.50;;;4.10;;
10201;SDS011;5143;42.584;23.164;2022-07-26T12:59:52;5.90;;;3.90;;
10201;SDS011;5143;42.584;23.164;2022-07-26T13:02:21;7.47;;;4.18;;
10201;SDS011;5143;42.584;23.164;2022-07-26T13:04:47;4.38;;;3.95;;
10201;SDS011;5143;42.584;23.164;2022-07-26T13:07:15;4.22;;;3.78;;
10201;SDS011;5143;42.584;23.164;2022-07-26T13:09:43;7.28;;;4.00;;
10201;SDS011;5143;42.584;23.164;2022-07-26T13:12:11;7.88;;;3.92;;
10201;SDS011;5143;42.584;23.164;2022-07-26T13:14:39;9.05;;;4.03;;
10201;SDS011;5143;42.584;23.164;2022-07-26T13:17:07;6.22;;;4.18;;
10201;SDS011;5143;42.584;23.164;2022-07-26T13:19:37;4.20;;;3.78;;
10201;SDS011;5143;42.584;23.164;2022-07-26T13:22:04;5.22;;;4.13;;
10201;SDS011;5143;42.584;23.164;2022-07-26T13:24:32;3.97;;;3.67;;
10201;SDS011;5143;42.584;23.164;2022-07-26T13:27:00;4.13;;;3.83;;
10201;SDS011;5143;42.584;23.164;2022-07-26T13:29:28;7.05;;;4.25;;
10201;SDS011;5143;42.584;23.164;2022-07-26T13:31:56;6.72;;;4.10;;
10201;SDS011;5143;42.584;23.164;2022-07-26T13:34:24;4.40;;;4.00;;
10201;SDS011;5143;42.584;23.164;2022-07-26T13:36:53;7.07;;;4.10;;
10201;SDS011;5143;42.584;23.164;2022-07-26T13:39:20;7.95;;;4.10;;
10201;SDS011;5143;42.584;23.164;2022-07-26T13:41:46;6.32;;;4.05;;
10201;SDS011;5143;42.584;23.164;2022-07-26T13:44:13;9.40;;;4.18;;
10201;SDS011;5143;42.584;23.164;2022-07-26T13:46:40;7.28;;;4.00;;
10201;SDS011;5143;42.584;23.164;2022-07-26T13:49:07;6.75;;;4.28;;
10201;SDS011;5143;42.584;23.164;2022-07-26T13:51:35;7.35;;;4.32;;
10201;SDS011;5143;42.584;23.164;2022-07-26T13:54:23;7.40;;;4.03;;
10201;SDS011;5143;42.584;23.164;2022-07-26T13:56:51;7.60;;;4.55;;
10201;SDS011;5143;42.584;23.164;2022-07-26T13:59:18;4.80;;;4.10;;
10201;SDS011;5143;42.584;23.164;2022-07-26T14:01:45;4.60;;;4.20;;
10201;SDS011;5143;42.584;23.164;2022-07-26T14:04:12;6.53;;;4.45;;
10201;SDS011;5143;42.584;23.164;2022-07-26T14:06:39;4.43;;;4.03;;
10201;SDS011;5143;42.584;23.164;2022-07-26T14:09:06;5.72;;;4.65;;
10201;SDS011;5143;42.584;23.164;2022-07-26T14:11:36;7.22;;;4.45;;
10201;SDS011;5143;42.584;23.164;2022-07-26T14:14:03;5.75;;;4.13;;
10201;SDS011;5143;42.584;23.164;2022-07-26T14:16:31;4.68;;;4.28;;
10201;SDS011;5143;42.584;23.164;2022-07-26T14:18:58;4.60;;;4.20;;
10201;SDS011;5143;42.584;23.164;2022-07-26T14:21:25;5.03;;;4.20;;
10201;SDS011;5143;42.584;23.164;2022-07-26T14:23:54;5.28;;;4.45;;
10201;SDS011;5143;42.584;23.164;2022-07-26T14:26:22;4.80;;;4.40;;
10201;SDS011;5143;42.584;23.164;2022-07-26T14:28:51;5.43;;;4.32;;
10201;SDS011;5143;42.584;23.164;2022-07-26T14:31:18;4.75;;;4.32;;
10201;SDS011;5143;42.584;23.164;2022-07-26T14:33:45;9.13;;;4.55;;
10201;SDS011;5143;42.584;23.164;2022-07-26T14:36:12;9.70;;;4.70;;
10201;SDS011;5143;42.584;23.164;2022-07-26T14:38:39;5.18;;;4.18;;
10201;SDS011;5143;42.584;23.164;2022-07-26T14:41:06;5.38;;;4.50;;
10201;SDS011;5143;42.584;23.164;2022-07-26T14:43:33;5.00;;;4.18;;
10201;SDS011;5143;42.584;23.164;2022-07-26T14:46:02;8.15;;;4.25;;
10201;SDS011;5143;42.584;23.164;2022-07-26T14:48:29;6.43;;;4.57;;
10201;SDS011;5143;42.584;23.164;2022-07-26T14:50:56;4.95;;;4.38;;
10201;SDS011;5143;42.584;23.164;2022-07-26T14:53:23;9.18;;;4.28;;
10201;SDS011;5143;42.584;23.164;2022-07-26T14:55:50;9.73;;;4.97;;
10201;SDS011;5143;42.584;23.164;2022-07-26T14:58:17;7.65;;;5.18;;
10201;SDS011;5143;42.584;23.164;2022-07-26T15:00:44;10.35;;;4.78;;
10201;SDS011;5143;42.584;23.164;2022-07-26T15:03:13;9.65;;;5.18;;
10201;SDS011;5143;42.584;23.164;2022-07-26T15:05:39;16.08;;;8.98;;
10201;SDS011;5143;42.584;23.164;2022-07-26T15:08:06;10.57;;;6.72;;
10201;SDS011;5143;42.584;23.164;2022-07-26T15:10:33;5.60;;;5.00;;